Time;durP1;ratioP1;P1;durP2;ratioP2;P2;SDS_P1;SDS_P2;PMS_P1;PMS_P2;Temp;Humidity;BMP_temperature;BMP_pressure;BME280_temperature;BME280_humidity;BME280_pressure;Samples;Min_cycle;Max_cycle;Signal;HPM_P1;HPM_P2
2020/12/29 00:00:33;;;;;;;1.63;1.53;;;;;;;3.92;84.74;92982.19;5074257;28;20994;-57
2020/12/29 00:02:58;;;;;;;2.37;1.90;;;;;;;3.86;85.52;92979.91;5074292;28;20204;-56
2020/12/29 00:05:24;;;;;;;1.80;1.70;;;;;;;3.62;88.00;92978.97;5074541;28;20298;-60
2020/12/29 00:07:55;;;;;;;1.60;1.50;;;;;;;3.80;88.25;92979.16;5074040;28;20588;-56
2020/12/29 00:10:24;;;;;;;1.50;1.40;;;;;;;3.62;89.61;92979.78;5073938;28;20204;-56
2020/12/29 00:12:50;;;;;;;1.30;1.20;;;;;;;3.64;90.81;92982.84;5074320;28;20505;-56
2020/12/29 00:15:16;;;;;;;1.60;1.23;;;;;;;3.35;92.26;92976.75;5074378;28;20431;-60
2020/12/29 00:17:41;;;;;;;0.93;0.93;;;;;;;3.25;93.80;92965.63;5073247;28;20426;-60
2020/12/29 00:20:07;;;;;;;1.27;1.20;;;;;;;3.34;93.87;92962.22;5073975;28;20192;-60
2020/12/29 00:22:33;;;;;;;1.00;1.00;;;;;;;3.40;93.69;92963.78;5073797;28;20645;-60
2020/12/29 00:24:59;;;;;;;0.90;0.90;;;;;;;3.48;93.31;92978.00;5074021;28;20219;-60
2020/12/29 00:27:25;;;;;;;1.63;1.10;;;;;;;3.38;94.11;92975.44;5073541;28;20406;-56
2020/12/29 00:29:50;;;;;;;1.83;1.00;;;;;;;3.55;93.40;92970.72;5073848;28;20682;-60
2020/12/29 00:32:15;;;;;;;0.70;0.70;;;;;;;3.54;92.95;92966.56;5073630;28;20276;-61
2020/12/29 00:34:41;;;;;;;2.00;0.60;;;;;;;3.58;92.75;92977.97;5073962;28;20181;-56
2020/12/29 00:37:07;;;;;;;0.70;0.70;;;;;;;3.63;92.76;92975.34;5072883;28;20202;-60
2020/12/29 00:39:32;;;;;;;2.37;1.00;;;;;;;3.62;93.23;92973.78;5073149;28;20838;-59
2020/12/29 00:41:58;;;;;;;0.57;0.57;;;;;;;3.69;91.66;92985.44;5073813;28;20180;-60
2020/12/29 00:44:24;;;;;;;0.87;0.87;;;;;;;3.67;92.64;92984.94;5073233;28;20607;-56
2020/12/29 00:46:51;;;;;;;0.77;0.70;;;;;;;3.70;92.56;92986.19;5073255;28;20540;-61
2020/12/29 00:49:16;;;;;;;0.70;0.70;;;;;;;3.68;91.42;92988.28;5073506;28;20873;-59
2020/12/29 00:51:41;;;;;;;0.90;0.90;;;;;;;4.00;91.07;92981.63;5073363;28;20435;-57
2020/12/29 00:54:07;;;;;;;1.00;1.00;;;;;;;4.00;90.11;92993.84;5073384;28;20181;-60
2020/12/29 00:56:32;;;;;;;0.50;0.50;;;;;;;3.91;90.79;92996.22;5073366;28;20169;-57
2020/12/29 00:58:57;;;;;;;1.00;1.00;;;;;;;4.00;90.68;92999.03;5073229;28;20633;-60
2020/12/29 01:01:23;;;;;;;0.80;0.80;;;;;;;3.85;92.75;93010.28;5073575;28;20641;-57
2020/12/29 01:03:48;;;;;;;1.43;0.67;;;;;;;3.93;92.56;93009.72;5073464;28;20171;-60
2020/12/29 01:06:14;;;;;;;0.93;0.93;;;;;;;3.80;94.01;93002.53;5073022;28;20647;-56
2020/12/29 01:08:39;;;;;;;1.20;1.10;;;;;;;3.74;94.62;93002.81;5072641;28;20207;-60
2020/12/29 01:11:04;;;;;;;0.73;0.73;;;;;;;3.69;95.29;93003.63;5073364;28;20206;-61
2020/12/29 01:13:30;;;;;;;1.23;1.03;;;;;;;3.68;96.25;93002.03;5073435;28;20175;-56
2020/12/29 01:15:56;;;;;;;0.97;0.97;;;;;;;3.64;97.50;93001.00;5073423;28;20633;-56
2020/12/29 01:18:21;;;;;;;0.87;0.87;;;;;;;3.69;97.06;92995.03;5072435;28;20175;-60
2020/12/29 01:20:50;;;;;;;1.03;0.93;;;;;;;3.54;98.43;92997.69;5072830;28;20189;-60
2020/12/29 01:23:16;;;;;;;0.90;0.90;;;;;;;3.61;98.25;92998.97;5073156;28;20203;-56
2020/12/29 01:25:43;;;;;;;1.30;1.20;;;;;;;3.58;97.96;92999.50;5073199;28;20509;-57
2020/12/29 01:28:12;;;;;;;1.20;1.10;;;;;;;3.83;97.20;93006.38;5072649;28;20794;-57
2020/12/29 01:30:38;;;;;;;1.00;1.00;;;;;;;3.72;98.17;93013.44;5072960;28;20950;-61
2020/12/29 01:33:04;;;;;;;1.27;0.80;;;;;;;3.87;97.69;93015.19;5072639;28;20413;-57
2020/12/29 01:35:29;;;;;;;0.70;0.70;;;;;;;3.89;97.00;93023.50;5073006;28;20664;-61
2020/12/29 01:37:55;;;;;;;0.70;0.70;;;;;;;3.69;98.06;93015.81;5072750;28;20407;-57
2020/12/29 01:40:20;;;;;;;1.00;0.90;;;;;;;3.35;100.00;93025.25;5072830;28;20199;-56
2020/12/29 01:42:46;;;;;;;0.87;0.87;;;;;;;3.54;99.42;93021.81;5073066;28;20696;-56
2020/12/29 01:45:13;;;;;;;1.30;0.73;;;;;;;3.68;99.29;93022.81;5072361;28;20181;-56
2020/12/29 01:47:40;;;;;;;1.80;1.00;;;;;;;3.80;98.65;93027.69;5072615;28;20179;-61
2020/12/29 01:50:17;;;;;;;1.13;1.13;;;;;;;3.86;97.80;93030.00;5073998;28;20978;-60
2020/12/29 01:52:42;;;;;;;1.00;1.00;;;;;;;3.98;97.40;93027.09;5076925;28;20900;-56
2020/12/29 01:55:09;;;;;;;0.83;0.83;;;;;;;3.89;98.06;93015.72;5076857;28;20433;-57
2020/12/29 01:57:36;;;;;;;0.80;0.70;;;;;;;3.92;97.67;93020.38;5060874;28;20338;-56
2020/12/29 02:00:11;;;;;;;0.83;0.83;;;;;;;3.94;97.05;93020.88;5076721;28;20793;-60
2020/12/29 02:02:37;;;;;;;1.17;0.90;;;;;;;3.93;97.18;93014.91;5076412;28;20419;-60
2020/12/29 02:05:04;;;;;;;1.07;0.67;;;;;;;3.89;97.42;93008.72;5076732;28;20909;-56
2020/12/29 02:07:30;;;;;;;0.90;0.70;;;;;;;4.01;97.14;93019.53;5076263;28;20175;-61
2020/12/29 02:09:56;;;;;;;0.73;0.73;;;;;;;3.92;97.73;93022.97;5076343;28;20466;-61
2020/12/29 02:12:22;;;;;;;1.60;0.70;;;;;;;4.03;96.84;93027.84;5076456;28;20427;-60
2020/12/29 02:14:48;;;;;;;0.80;0.80;;;;;;;3.97;97.17;93035.91;5075844;28;20259;-60
2020/12/29 02:17:13;;;;;;;1.20;1.10;;;;;;;4.12;96.75;93033.25;5076090;28;20560;-57
2020/12/29 02:19:41;;;;;;;0.70;0.70;;;;;;;4.32;96.02;93037.56;5075012;28;20197;-57
2020/12/29 02:22:07;;;;;;;0.80;0.80;;;;;;;4.12;96.28;93036.63;5075643;28;20180;-57
2020/12/29 02:24:32;;;;;;;0.80;0.63;;;;;;;4.49;95.66;93036.16;5075954;28;20782;-60
2020/12/29 02:26:57;;;;;;;0.77;0.60;;;;;;;4.55;93.99;93031.72;5075155;28;20288;-61
2020/12/29 02:29:23;;;;;;;0.60;0.60;;;;;;;4.38;94.37;93032.06;5075694;28;20202;-57
2020/12/29 02:31:48;;;;;;;0.50;0.50;;;;;;;4.28;95.12;93031.34;5075429;28;20183;-61
2020/12/29 02:34:14;;;;;;;0.60;0.60;;;;;;;4.31;96.03;93047.19;5075679;28;20212;-60
2020/12/29 02:36:39;;;;;;;0.53;0.50;;;;;;;4.46;94.48;93044.47;5075129;28;20172;-61
2020/12/29 02:39:04;;;;;;;0.40;0.40;;;;;;;4.27;96.10;93051.38;5075826;28;20209;-57
2020/12/29 02:41:30;;;;;;;1.87;0.60;;;;;;;4.20;96.01;93059.44;5076015;28;20599;-60
2020/12/29 02:43:55;;;;;;;0.70;0.57;;;;;;;4.18;97.09;93066.72;5075568;28;20191;-60
2020/12/29 02:46:20;;;;;;;0.50;0.50;;;;;;;4.18;96.87;93066.72;5074926;28;20185;-58
2020/12/29 02:48:46;;;;;;;0.60;0.60;;;;;;;4.11;96.19;93073.25;5075249;28;20197;-61
2020/12/29 02:51:14;;;;;;;0.60;0.60;;;;;;;4.25;95.86;93066.44;5075487;28;20205;-61
2020/12/29 02:53:40;;;;;;;0.40;0.40;;;;;;;4.06;97.17;93073.25;5057332;28;20541;-60
2020/12/29 02:56:05;;;;;;;0.50;0.50;;;;;;;4.01;97.82;93068.88;5075712;28;20430;-57
2020/12/29 02:58:31;;;;;;;0.50;0.50;;;;;;;3.75;98.63;93074.44;5074855;28;20172;-56
2020/12/29 03:00:56;;;;;;;0.83;0.60;;;;;;;3.91;99.15;93075.94;5074781;28;20482;-60
2020/12/29 03:03:21;;;;;;;2.07;0.60;;;;;;;3.87;99.59;93077.50;5075292;28;20172;-60
2020/12/29 03:05:47;;;;;;;0.80;0.60;;;;;;;4.06;99.12;93086.25;5075116;28;20243;-57
2020/12/29 03:08:12;;;;;;;0.53;0.53;;;;;;;3.98;99.47;93086.81;5074578;28;20217;-60
2020/12/29 03:10:37;;;;;;;1.77;0.77;;;;;;;4.11;98.66;93091.44;5075409;28;20683;-60
2020/12/29 03:13:03;;;;;;;0.43;0.43;;;;;;;3.87;100.00;93091.28;5075158;28;20182;-60
2020/12/29 03:15:29;;;;;;;0.40;0.40;;;;;;;3.83;100.00;93095.44;5075293;28;20300;-56
2020/12/29 03:17:54;;;;;;;0.60;0.60;;;;;;;4.00;100.00;93100.31;5074539;28;20427;-60
2020/12/29 03:20:19;;;;;;;0.73;0.50;;;;;;;3.83;100.00;93112.84;5075155;28;20198;-56
2020/12/29 03:22:45;;;;;;;0.80;0.47;;;;;;;3.75;100.00;93098.56;5075554;28;20711;-56
2020/12/29 03:25:10;;;;;;;0.50;0.50;;;;;;;4.03;99.63;93104.97;5075365;28;20501;-57
2020/12/29 03:27:35;;;;;;;0.47;0.47;;;;;;;3.61;100.00;93125.34;5073312;28;20186;-61
2020/12/29 03:30:01;;;;;;;0.47;0.47;;;;;;;3.75;100.00;93114.16;5074781;28;20204;-60
2020/12/29 03:32:26;;;;;;;1.33;0.47;;;;;;;3.67;100.00;93119.88;5075328;28;20176;-61
2020/12/29 03:34:51;;;;;;;0.50;0.50;;;;;;;3.77;100.00;93126.84;5074728;28;20230;-57
2020/12/29 03:37:17;;;;;;;2.60;1.30;;;;;;;3.77;100.00;93124.25;5074649;28;20192;-56
2020/12/29 03:39:43;;;;;;;0.50;0.50;;;;;;;3.75;100.00;93126.38;5057175;28;20196;-61
2020/12/29 03:42:08;;;;;;;0.70;0.60;;;;;;;3.91;100.00;93146.81;5074479;28;20231;-61
2020/12/29 03:44:34;;;;;;;0.67;0.67;;;;;;;3.89;100.00;93128.16;5074418;28;20184;-60
2020/12/29 03:47:01;;;;;;;0.70;0.57;;;;;;;3.92;100.00;93137.22;5074218;28;20171;-61
2020/12/29 03:49:26;;;;;;;0.87;0.60;;;;;;;4.00;99.63;93153.00;5074477;28;20512;-60
2020/12/29 03:51:52;;;;;;;0.67;0.50;;;;;;;3.71;100.00;93154.66;5074611;28;20418;-60
2020/12/29 03:54:18;;;;;;;0.50;0.40;;;;;;;3.48;100.00;93154.44;5074312;28;20182;-61
2020/12/29 03:56:43;;;;;;;1.00;0.60;;;;;;;3.39;100.00;93150.81;5073216;28;20462;-60
2020/12/29 03:59:08;;;;;;;0.50;0.50;;;;;;;3.65;100.00;93152.31;5074205;28;20176;-56
2020/12/29 04:01:34;;;;;;;3.90;0.50;;;;;;;3.63;100.00;93152.59;5074486;28;20519;-60
2020/12/29 04:03:59;;;;;;;1.00;0.50;;;;;;;3.66;100.00;93152.06;5074669;28;20170;-56
2020/12/29 04:06:24;;;;;;;0.50;0.40;;;;;;;3.89;100.00;93161.91;5073854;28;20189;-61
2020/12/29 04:08:50;;;;;;;1.07;0.67;;;;;;;3.85;100.00;93173.06;5074423;28;20203;-60
2020/12/29 04:11:15;;;;;;;0.73;0.43;;;;;;;3.76;100.00;93157.25;5073848;28;20198;-60
2020/12/29 04:13:41;;;;;;;0.57;0.43;;;;;;;3.78;100.00;93160.38;5072593;28;20216;-60
2020/12/29 04:16:06;;;;;;;1.83;0.50;;;;;;;3.81;100.00;93164.22;5073922;28;20185;-60
2020/12/29 04:18:32;;;;;;;0.63;0.47;;;;;;;3.73;100.00;93180.34;5073735;28;20200;-56
2020/12/29 04:20:57;;;;;;;0.93;0.60;;;;;;;3.79;100.00;93168.91;5074143;28;20267;-56
2020/12/29 04:23:23;;;;;;;1.63;0.60;;;;;;;3.68;100.00;93167.38;5073553;28;20238;-61
2020/12/29 04:25:48;;;;;;;0.40;0.40;;;;;;;3.65;100.00;93162.72;5073655;28;20204;-59
2020/12/29 04:28:14;;;;;;;1.33;0.60;;;;;;;3.62;100.00;93165.84;5072602;28;20696;-57
2020/12/29 04:30:39;;;;;;;0.50;0.50;;;;;;;3.73;100.00;93165.53;5073552;28;20207;-60
2020/12/29 04:33:04;;;;;;;0.60;0.60;;;;;;;3.75;99.85;93173.09;5073665;28;20189;-57
2020/12/29 04:35:30;;;;;;;0.47;0.40;;;;;;;3.64;99.96;93180.09;5074032;28;20180;-56
2020/12/29 04:37:55;;;;;;;1.53;0.40;;;;;;;3.63;100.00;93181.16;5073070;28;20630;-60
2020/12/29 04:40:21;;;;;;;1.50;0.53;;;;;;;3.55;99.56;93189.44;5073426;28;20213;-56
2020/12/29 04:42:46;;;;;;;0.60;0.40;;;;;;;3.38;100.00;93175.19;5072996;28;20186;-61
2020/12/29 04:45:12;;;;;;;1.57;0.57;;;;;;;3.45;99.93;93199.84;5073872;28;20220;-56
2020/12/29 04:47:38;;;;;;;2.23;0.70;;;;;;;3.46;100.00;93201.38;5072678;28;20178;-61
2020/12/29 04:50:04;;;;;;;1.13;0.40;;;;;;;3.52;100.00;93202.94;5073302;28;20281;-60
2020/12/29 04:52:30;;;;;;;1.63;0.47;;;;;;;3.48;100.00;93214.13;5073459;28;20772;-56
2020/12/29 04:54:56;;;;;;;0.90;0.50;;;;;;;3.37;100.00;93225.53;5073185;28;20189;-60
2020/12/29 04:57:24;;;;;;;2.00;0.50;;;;;;;3.30;100.00;93217.97;5073008;28;20937;-56
2020/12/29 04:59:50;;;;;;;0.57;0.40;;;;;;;3.30;100.00;93212.03;5073677;28;20425;-56
2020/12/29 05:02:16;;;;;;;2.00;0.67;;;;;;;3.25;100.00;93209.41;5072989;28;20427;-60
2020/12/29 05:04:41;;;;;;;0.87;0.60;;;;;;;3.24;100.00;93219.03;5073514;28;20405;-56
2020/12/29 05:07:07;;;;;;;1.53;0.50;;;;;;;3.26;100.00;93221.38;5072301;28;20184;-56
2020/12/29 05:09:32;;;;;;;0.73;0.50;;;;;;;3.31;100.00;93222.16;5072857;28;20207;-56
2020/12/29 05:11:58;;;;;;;1.10;0.40;;;;;;;3.24;100.00;93213.06;5073271;28;20513;-60
2020/12/29 05:14:24;;;;;;;0.40;0.40;;;;;;;3.22;100.00;93222.91;5073235;28;20193;-56
2020/12/29 05:16:53;;;;;;;1.73;0.50;;;;;;;3.20;100.00;93233.56;5073008;28;20176;-61
2020/12/29 05:19:20;;;;;;;1.30;0.60;;;;;;;3.38;100.00;93240.84;5073005;28;20203;-56
2020/12/29 05:21:46;;;;;;;0.70;0.40;;;;;;;3.16;100.00;93248.06;5072301;28;20444;-56
2020/12/29 05:24:16;;;;;;;0.70;0.70;;;;;;;3.32;100.00;93241.84;5072554;28;20474;-57
2020/12/29 05:26:43;;;;;;;1.13;0.80;;;;;;;3.33;100.00;93248.63;5071511;28;20516;-57
2020/12/29 05:29:14;;;;;;;0.87;0.60;;;;;;;3.33;100.00;93256.41;5072613;28;20451;-60
2020/12/29 05:31:42;;;;;;;1.60;1.50;;;;;;;3.28;100.00;93245.22;5073118;28;20418;-56
2020/12/29 05:34:17;;;;;;;0.57;0.43;;;;;;;3.34;100.00;93263.13;5073220;28;20516;-60
2020/12/29 05:36:44;;;;;;;1.53;0.60;;;;;;;3.44;100.00;93270.16;5072582;28;20512;-57
2020/12/29 05:39:10;;;;;;;0.70;0.70;;;;;;;3.48;100.00;93260.81;5054535;28;20865;-56
2020/12/29 05:41:45;;;;;;;1.13;0.47;;;;;;;3.41;100.00;93263.66;5072277;28;20422;-56
2020/12/29 05:44:14;;;;;;;0.80;0.63;;;;;;;3.31;100.00;93271.44;5073117;28;20756;-60
2020/12/29 05:46:39;;;;;;;0.77;0.50;;;;;;;3.34;100.00;93283.09;5072894;28;20440;-60
2020/12/29 05:49:05;;;;;;;0.53;0.53;;;;;;;3.34;100.00;93290.88;5072394;28;20487;-57
2020/12/29 05:51:33;;;;;;;1.33;0.50;;;;;;;3.22;100.00;93296.31;5072594;28;20183;-56
2020/12/29 05:54:00;;;;;;;1.30;0.60;;;;;;;3.34;100.00;93302.03;5072570;28;20259;-56
2020/12/29 05:56:31;;;;;;;0.50;0.50;;;;;;;3.23;100.00;93302.25;5072297;28;20427;-60
2020/12/29 05:58:57;;;;;;;2.83;0.43;;;;;;;3.33;100.00;93302.31;5072857;28;20438;-55
2020/12/29 06:01:34;;;;;;;1.67;0.50;;;;;;;3.26;100.00;93306.97;5072438;28;20512;-56
2020/12/29 06:04:02;;;;;;;0.40;0.40;;;;;;;3.24;100.00;93316.81;5072608;28;20425;-56
2020/12/29 06:06:29;;;;;;;0.43;0.43;;;;;;;3.22;100.00;93308.50;5071891;28;20440;-60
2020/12/29 06:08:59;;;;;;;0.73;0.73;;;;;;;3.19;100.00;93325.34;5071956;28;20538;-55
2020/12/29 06:11:36;;;;;;;0.57;0.57;;;;;;;3.01;100.00;93320.63;5054595;28;20791;-60
2020/12/29 06:14:05;;;;;;;1.03;0.90;;;;;;;3.03;100.00;93315.97;5072555;28;20436;-59
2020/12/29 06:16:32;;;;;;;0.63;0.63;;;;;;;3.02;100.00;93320.38;5072200;28;20476;-56
2020/12/29 06:19:02;;;;;;;0.93;0.50;;;;;;;3.02;100.00;93319.59;5072248;28;20425;-56
2020/12/29 06:21:29;;;;;;;0.43;0.43;;;;;;;3.11;100.00;93323.25;5072863;28;20398;-56
2020/12/29 06:23:57;;;;;;;0.80;0.70;;;;;;;3.07;100.00;93329.97;5072069;28;20907;-59
2020/12/29 06:26:33;;;;;;;0.50;0.50;;;;;;;3.16;100.00;93349.19;5071328;28;20429;-60
2020/12/29 06:29:02;;;;;;;1.03;0.63;;;;;;;3.23;100.00;93341.16;5070003;28;20598;-56
2020/12/29 06:31:29;;;;;;;1.37;0.50;;;;;;;2.97;100.00;93356.66;5071832;28;20782;-59
2020/12/29 06:33:57;;;;;;;0.80;0.80;;;;;;;3.24;100.00;93358.31;5071889;28;20922;-60
2020/12/29 06:36:28;;;;;;;1.43;0.70;;;;;;;3.21;100.00;93362.19;5073184;28;20503;-61
2020/12/29 06:38:58;;;;;;;1.33;0.70;;;;;;;3.21;100.00;93354.41;5076192;28;20401;-55
2020/12/29 06:41:24;;;;;;;1.33;0.60;;;;;;;3.22;100.00;93366.34;5076072;28;20415;-59
2020/12/29 06:43:50;;;;;;;0.40;0.40;;;;;;;3.31;100.00;93377.78;5075625;28;20417;-55
2020/12/29 06:46:16;;;;;;;1.80;0.93;;;;;;;3.39;100.00;93376.53;5076361;28;20903;-59
2020/12/29 06:48:41;;;;;;;1.10;0.80;;;;;;;3.26;100.00;93401.13;5075024;28;20200;-56
2020/12/29 06:51:12;;;;;;;0.40;0.40;;;;;;;3.17;100.00;93414.81;5075594;28;20453;-56
2020/12/29 06:53:42;;;;;;;0.80;0.80;;;;;;;3.25;100.00;93415.13;5075366;28;20183;-55
2020/12/29 06:56:18;;;;;;;0.83;0.70;;;;;;;3.06;100.00;93414.75;5075037;28;20486;-56
2020/12/29 06:58:43;;;;;;;0.50;0.50;;;;;;;3.08;100.00;93425.66;5075146;28;20781;-59
2020/12/29 07:01:22;;;;;;;0.40;0.40;;;;;;;2.97;100.00;93408.50;5075117;28;20445;-56
2020/12/29 07:03:59;;;;;;;1.17;0.60;;;;;;;3.02;100.00;93439.66;5075813;28;20644;-56
2020/12/29 07:06:32;;;;;;;0.60;0.60;;;;;;;3.08;100.00;93437.84;5075472;28;20457;-56
2020/12/29 07:09:01;;;;;;;1.70;0.70;;;;;;;3.15;100.00;93443.59;5075165;28;20456;-56
2020/12/29 07:11:26;;;;;;;0.70;0.70;;;;;;;3.10;100.00;93452.13;5075315;28;20425;-60
2020/12/29 07:13:52;;;;;;;1.23;0.60;;;;;;;3.21;100.00;93475.53;5075608;28;20548;-60
2020/12/29 07:16:25;;;;;;;1.50;0.93;;;;;;;3.10;100.00;93477.28;5074856;28;20179;-61
2020/12/29 07:18:52;;;;;;;4.03;0.87;;;;;;;3.20;100.00;93492.91;5075419;28;20402;-56
2020/12/29 07:21:28;;;;;;;1.10;0.70;;;;;;;3.26;100.00;93496.31;5075415;28;20403;-60
2020/12/29 07:23:55;;;;;;;0.87;0.87;;;;;;;3.23;100.00;93505.38;5074794;28;20427;-56
2020/12/29 07:26:22;;;;;;;1.00;0.80;;;;;;;3.33;100.00;93510.63;5074971;28;21086;-61
2020/12/29 07:28:56;;;;;;;3.20;2.47;;;;;;;3.49;100.00;93519.25;5075061;28;20508;-56
2020/12/29 07:31:22;;;;;;;2.63;1.47;;;;;;;3.65;100.00;93526.88;5074960;28;20507;-56
2020/12/29 07:33:49;;;;;;;2.27;1.30;;;;;;;3.71;100.00;93527.66;5075072;28;20455;-60
2020/12/29 07:36:18;;;;;;;3.03;1.70;;;;;;;3.75;100.00;93536.53;5075075;28;20169;-56
2020/12/29 07:38:49;;;;;;;4.00;2.47;;;;;;;3.82;100.00;93543.00;5074479;28;20432;-56
2020/12/29 07:41:19;;;;;;;1.90;1.70;;;;;;;3.87;100.00;93560.44;5075031;28;20872;-61
2020/12/29 07:43:45;;;;;;;3.50;2.10;;;;;;;4.01;100.00;93564.91;5074583;28;20910;-56
2020/12/29 07:46:11;;;;;;;3.30;2.60;;;;;;;3.81;100.00;93561.44;5074495;28;20952;-60
2020/12/29 07:48:37;;;;;;;4.03;1.70;;;;;;;3.94;100.00;93577.38;5074554;28;20442;-56
2020/12/29 07:51:03;;;;;;;1.87;1.63;;;;;;;3.99;100.00;93590.34;5074981;28;20205;-60
2020/12/29 07:53:29;;;;;;;2.13;1.40;;;;;;;4.08;99.98;93591.44;5074887;28;20410;-56
2020/12/29 07:55:55;;;;;;;1.17;1.07;;;;;;;3.99;100.00;93600.75;5074094;28;20425;-56
2020/12/29 07:58:20;;;;;;;4.27;0.90;;;;;;;4.06;100.00;93610.91;5073874;28;20232;-57
2020/12/29 08:00:46;;;;;;;1.13;0.67;;;;;;;3.81;100.00;93614.16;5074192;28;20518;-56
2020/12/29 08:03:12;;;;;;;1.50;0.67;;;;;;;3.77;100.00;93625.28;5074595;28;20200;-61
2020/12/29 08:05:38;;;;;;;0.93;0.70;;;;;;;3.86;100.00;93636.78;5074388;28;20172;-60
2020/12/29 08:08:08;;;;;;;1.13;1.03;;;;;;;3.84;100.00;93639.63;5056247;28;20456;-56
2020/12/29 08:10:41;;;;;;;1.37;0.93;;;;;;;3.76;100.00;93642.69;5074413;28;20433;-56
2020/12/29 08:13:11;;;;;;;0.97;0.60;;;;;;;4.03;100.00;93647.78;5073641;28;20426;-56
2020/12/29 08:15:43;;;;;;;1.23;0.70;;;;;;;4.08;99.64;93653.00;5074126;28;20423;-60
2020/12/29 08:18:17;;;;;;;0.70;0.70;;;;;;;4.16;99.99;93660.31;5073825;28;20407;-60
2020/12/29 08:20:56;;;;;;;1.70;0.93;;;;;;;4.13;99.18;93653.03;5073938;28;20485;-56
2020/12/29 08:23:29;;;;;;;0.50;0.50;;;;;;;4.19;99.22;93670.19;5055956;28;20782;-57
2020/12/29 08:25:55;;;;;;;1.00;0.90;;;;;;;4.20;99.62;93671.78;5055818;28;20516;-60
2020/12/29 08:28:23;;;;;;;3.23;1.20;;;;;;;4.24;99.17;93674.66;5073483;28;20924;-56
2020/12/29 08:30:49;;;;;;;1.17;0.70;;;;;;;4.31;98.26;93683.78;5073944;28;20481;-60
2020/12/29 08:33:18;;;;;;;0.93;0.60;;;;;;;4.32;98.73;93687.94;5074168;28;20816;-60
2020/12/29 08:35:52;;;;;;;1.57;0.60;;;;;;;4.31;98.79;93706.38;5073602;28;20238;-56
2020/12/29 08:38:26;;;;;;;0.73;0.70;;;;;;;4.36;98.09;93712.38;5073128;28;20423;-57
2020/12/29 08:41:25;;;;;;;1.33;0.83;;;;;;;4.39;98.73;93719.66;5073940;28;20431;-60
2020/12/29 08:43:53;;;;;;;0.53;0.53;;;;;;;4.07;99.76;93735.34;5074005;28;20811;-56
2020/12/29 08:46:23;;;;;;;1.60;1.20;;;;;;;4.12;100.00;93724.97;5073460;28;20410;-57
2020/12/29 08:48:59;;;;;;;1.40;0.97;;;;;;;4.06;100.00;93743.38;5073430;28;20474;-57
2020/12/29 08:51:27;;;;;;;1.83;1.00;;;;;;;4.12;100.00;93750.16;5073664;28;20425;-57
2020/12/29 08:53:54;;;;;;;1.27;1.17;;;;;;;4.10;100.00;93760.81;5073065;28;20414;-57
2020/12/29 08:56:26;;;;;;;3.70;1.10;;;;;;;4.05;100.00;93773.78;5073477;28;20411;-57
2020/12/29 08:58:53;;;;;;;1.70;1.10;;;;;;;3.88;100.00;93772.31;5072634;28;20418;-61
2020/12/29 09:01:56;;;;;;;1.80;1.00;;;;;;;3.90;100.00;93785.84;5073488;28;20407;-61
2020/12/29 09:04:42;;;;;;;1.60;1.27;;;;;;;3.81;100.00;93789.94;5058365;28;20459;-62
2020/12/29 09:07:14;;;;;;;1.93;1.03;;;;;;;3.79;100.00;93797.97;5072195;28;20513;-62
2020/12/29 09:09:52;;;;;;;1.03;0.93;;;;;;;3.72;100.00;93810.38;5072494;28;20989;-62
2020/12/29 09:12:32;;;;;;;1.00;0.90;;;;;;;3.77;100.00;93817.41;5073241;28;20782;-62
2020/12/29 09:15:00;;;;;;;1.33;1.23;;;;;;;3.87;100.00;93831.28;5072666;28;20419;-62
2020/12/29 09:17:31;;;;;;;0.77;0.77;;;;;;;3.85;100.00;93829.97;5072618;28;20907;-59
2020/12/29 09:20:22;;;;;;;2.30;1.30;;;;;;;3.62;100.00;93841.44;5073245;28;20983;-62
2020/12/29 09:22:58;;;;;;;1.10;1.00;;;;;;;3.57;100.00;93854.34;5073351;28;20893;-62
2020/12/29 09:25:40;;;;;;;1.30;1.20;;;;;;;3.52;100.00;93862.09;5073352;28;20933;-63
2020/12/29 09:28:11;;;;;;;1.33;0.97;;;;;;;3.52;100.00;93867.28;5071484;28;20440;-58
2020/12/29 09:30:37;;;;;;;1.10;1.00;;;;;;;3.50;100.00;93871.13;5070360;28;20548;-62
2020/12/29 09:33:03;;;;;;;3.50;1.57;;;;;;;3.40;100.00;93874.44;5072836;28;20414;-58
2020/12/29 09:35:29;;;;;;;1.50;1.40;;;;;;;3.57;100.00;93874.34;5073270;28;20482;-57
2020/12/29 09:37:57;;;;;;;1.23;1.13;;;;;;;3.30;100.00;93878.72;5072815;28;20410;-62
2020/12/29 09:40:23;;;;;;;1.30;1.20;;;;;;;3.52;100.00;93879.47;5072733;28;20199;-62
2020/12/29 09:42:49;;;;;;;1.67;1.20;;;;;;;3.73;100.00;93894.25;5073180;28;20424;-58
2020/12/29 09:45:18;;;;;;;1.47;0.93;;;;;;;3.87;100.00;93898.81;5073069;28;20422;-62
2020/12/29 09:47:44;;;;;;;1.07;0.97;;;;;;;3.90;100.00;93911.28;5072209;28;20780;-62
2020/12/29 09:50:10;;;;;;;1.17;0.80;;;;;;;3.85;100.00;93911.25;5072463;28;20459;-58
2020/12/29 09:52:35;;;;;;;0.50;0.50;;;;;;;3.54;100.00;93924.13;5073193;28;20638;-63
2020/12/29 09:55:02;;;;;;;1.77;1.17;;;;;;;3.69;100.00;93930.28;5071996;28;20659;-62
2020/12/29 09:57:28;;;;;;;0.90;0.80;;;;;;;3.82;100.00;93937.69;5072683;28;20584;-58
2020/12/29 09:59:53;;;;;;;2.33;1.10;;;;;;;3.81;100.00;93946.50;5072797;28;20438;-62
2020/12/29 10:02:18;;;;;;;1.67;1.30;;;;;;;3.85;100.00;93958.00;5072272;28;20318;-62
2020/12/29 10:04:44;;;;;;;1.10;1.00;;;;;;;3.91;100.00;93957.00;5072891;28;20234;-58
2020/12/29 10:07:09;;;;;;;1.03;0.70;;;;;;;3.93;100.00;93964.56;5072402;28;20645;-57
2020/12/29 10:09:34;;;;;;;1.10;1.00;;;;;;;4.03;100.00;93968.06;5072497;28;20274;-58
2020/12/29 10:12:00;;;;;;;0.93;0.93;;;;;;;4.31;100.00;93971.44;5075228;28;20246;-58
2020/12/29 10:14:26;;;;;;;1.80;0.93;;;;;;;4.07;100.00;93974.34;5076670;28;20182;-62
2020/12/29 10:16:51;;;;;;;1.70;1.20;;;;;;;4.29;100.00;93973.50;5076302;28;20207;-63
2020/12/29 10:19:17;;;;;;;0.90;0.90;;;;;;;4.35;100.00;93990.72;5076557;28;20428;-58
2020/12/29 10:21:45;;;;;;;0.83;0.83;;;;;;;4.42;99.53;93996.50;5072084;28;20824;-58
2020/12/29 10:24:10;;;;;;;0.80;0.73;;;;;;;4.24;98.25;93996.84;5072199;28;20182;-64
2020/12/29 10:26:35;;;;;;;3.20;0.90;;;;;;;4.26;98.81;93998.13;5072734;28;20419;-64
2020/12/29 10:29:01;;;;;;;2.33;1.17;;;;;;;4.58;98.93;93993.78;5072424;28;20667;-60
2020/12/29 10:31:26;;;;;;;0.80;0.80;;;;;;;4.98;98.61;93999.28;5072491;28;20259;-58
2020/12/29 10:33:52;;;;;;;0.90;0.90;;;;;;;4.89;96.15;94000.03;5072937;28;20181;-59
2020/12/29 10:36:17;;;;;;;2.40;0.80;;;;;;;4.98;95.17;94007.09;5072121;28;20263;-64
2020/12/29 10:38:42;;;;;;;1.10;0.80;;;;;;;5.06;95.99;94011.06;5071105;28;20173;-58
2020/12/29 10:41:08;;;;;;;0.83;0.83;;;;;;;5.19;94.32;94013.22;5072604;28;20197;-64
2020/12/29 10:43:33;;;;;;;0.80;0.80;;;;;;;5.06;94.17;94021.47;5072159;28;20186;-63
2020/12/29 10:45:59;;;;;;;0.70;0.60;;;;;;;5.19;94.10;94018.44;5072691;28;20178;-64
2020/12/29 10:48:24;;;;;;;0.63;0.53;;;;;;;4.99;94.29;94031.31;5072138;28;20550;-70
2020/12/29 10:50:49;;;;;;;1.03;0.70;;;;;;;4.78;95.54;94034.78;5071551;28;20216;-70
2020/12/29 10:53:15;;;;;;;2.40;1.03;;;;;;;4.98;95.62;94046.13;5054019;28;20183;-64
2020/12/29 10:55:40;;;;;;;0.67;0.67;;;;;;;5.07;93.43;94043.88;5072040;28;20265;-67
2020/12/29 10:58:05;;;;;;;1.00;0.50;;;;;;;5.01;93.80;94044.84;5072323;28;20256;-65
2020/12/29 11:00:31;;;;;;;0.60;0.50;;;;;;;5.13;94.58;94053.25;5072110;28;20250;-65
2020/12/29 11:02:56;;;;;;;0.50;0.50;;;;;;;5.48;94.49;94050.13;5072352;28;20261;-65
2020/12/29 11:05:21;;;;;;;0.57;0.57;;;;;;;5.39;91.47;94060.22;5072316;28;20205;-67
2020/12/29 11:07:47;;;;;;;0.60;0.60;;;;;;;5.21;91.27;94053.59;5071439;28;20594;-67
2020/12/29 11:10:13;;;;;;;0.60;0.53;;;;;;;5.11;93.15;94055.31;5072100;28;20202;-59
2020/12/29 11:12:38;;;;;;;1.10;0.60;;;;;;;5.17;91.86;94067.34;5071571;28;20914;-64
2020/12/29 11:15:04;;;;;;;0.87;0.80;;;;;;;5.20;92.53;94066.84;5072155;28;20192;-65
2020/12/29 11:17:29;;;;;;;0.80;0.63;;;;;;;5.34;91.01;94075.81;5070942;28;20212;-59
2020/12/29 11:19:54;;;;;;;0.67;0.67;;;;;;;5.22;90.96;94075.19;5073512;28;20284;-56
2020/12/29 11:22:20;;;;;;;1.30;1.20;;;;;;;5.30;90.76;94071.34;5074871;28;20650;-62
2020/12/29 11:24:45;;;;;;;2.90;2.70;;;;;;;5.20;89.90;94065.03;5074868;28;20622;-62
2020/12/29 11:27:11;;;;;;;2.53;2.33;;;;;;;5.30;89.72;94063.53;5057074;28;20176;-62
2020/12/29 11:29:36;;;;;;;5.53;5.13;;;;;;;5.63;88.92;94068.44;5075047;28;20209;-57
2020/12/29 11:32:02;;;;;;;4.17;3.77;;;;;;;5.79;89.99;94070.91;5075358;28;20213;-56
2020/12/29 11:34:27;;;;;;;6.73;6.13;;;;;;;6.34;87.57;94064.38;5075317;28;20174;-57
2020/12/29 11:36:52;;;;;;;4.30;4.00;;;;;;;6.54;83.44;94070.44;5074743;28;20262;-57